sensor_id;sensor_type;location;lat;lon;timestamp;P1;durP1;ratioP1;P2;durP2;ratioP2
11531;SDS011;5822;51.000;5.874;2023-08-30T00:00:38;13.23;;;12.63;;
11531;SDS011;5822;51.000;5.874;2023-08-30T00:03:04;12.95;;;12.35;;
11531;SDS011;5822;51.000;5.874;2023-08-30T00:05:31;13.50;;;12.80;;
11531;SDS011;5822;51.000;5.874;2023-08-30T00:07:56;13.20;;;12.60;;
11531;SDS011;5822;51.000;5.874;2023-08-30T00:10:22;14.07;;;13.38;;
11531;SDS011;5822;51.000;5.874;2023-08-30T00:12:48;13.90;;;13.20;;
11531;SDS011;5822;51.000;5.874;2023-08-30T00:15:14;13.90;;;13.20;;
11531;SDS011;5822;51.000;5.874;2023-08-30T00:17:40;14.10;;;13.40;;
11531;SDS011;5822;51.000;5.874;2023-08-30T00:20:05;14.02;;;13.32;;
11531;SDS011;5822;51.000;5.874;2023-08-30T00:22:32;13.90;;;13.20;;
11531;SDS011;5822;51.000;5.874;2023-08-30T00:24:58;14.20;;;13.50;;
11531;SDS011;5822;51.000;5.874;2023-08-30T00:27:24;14.30;;;13.60;;
11531;SDS011;5822;51.000;5.874;2023-08-30T00:29:49;14.47;;;13.77;;
11531;SDS011;5822;51.000;5.874;2023-08-30T00:32:15;14.20;;;13.50;;
11531;SDS011;5822;51.000;5.874;2023-08-30T00:34:41;13.73;;;13.10;;
11531;SDS011;5822;51.000;5.874;2023-08-30T00:37:06;13.90;;;13.20;;
11531;SDS011;5822;51.000;5.874;2023-08-30T00:39:33;14.38;;;13.68;;
11531;SDS011;5822;51.000;5.874;2023-08-30T00:41:59;14.30;;;13.60;;
11531;SDS011;5822;51.000;5.874;2023-08-30T00:44:29;14.40;;;13.70;;
11531;SDS011;5822;51.000;5.874;2023-08-30T00:46:55;14.77;;;13.97;;
11531;SDS011;5822;51.000;5.874;2023-08-30T00:49:21;14.57;;;13.82;;
11531;SDS011;5822;51.000;5.874;2023-08-30T00:51:46;14.53;;;13.83;;
11531;SDS011;5822;51.000;5.874;2023-08-30T00:54:12;14.33;;;13.63;;
11531;SDS011;5822;51.000;5.874;2023-08-30T00:56:38;14.40;;;13.70;;
11531;SDS011;5822;51.000;5.874;2023-08-30T00:59:03;14.80;;;14.10;;
11531;SDS011;5822;51.000;5.874;2023-08-30T01:01:29;14.90;;;14.20;;
11531;SDS011;5822;51.000;5.874;2023-08-30T01:03:55;15.03;;;14.23;;
11531;SDS011;5822;51.000;5.874;2023-08-30T01:06:20;15.20;;;14.43;;
11531;SDS011;5822;51.000;5.874;2023-08-30T01:08:46;14.80;;;14.10;;
11531;SDS011;5822;51.000;5.874;2023-08-30T01:14:26;15.40;;;14.60;;
11531;SDS011;5822;51.000;5.874;2023-08-30T01:16:50;15.25;;;14.45;;
11531;SDS011;5822;51.000;5.874;2023-08-30T01:24:32;15.52;;;14.73;;
11531;SDS011;5822;51.000;5.874;2023-08-30T01:27:10;15.48;;;14.68;;
11531;SDS011;5822;51.000;5.874;2023-08-30T01:29:37;15.77;;;14.97;;
11531;SDS011;5822;51.000;5.874;2023-08-30T01:32:07;15.80;;;15.00;;
11531;SDS011;5822;51.000;5.874;2023-08-30T01:34:36;15.55;;;14.75;;
11531;SDS011;5822;51.000;5.874;2023-08-30T01:37:04;15.50;;;14.70;;
11531;SDS011;5822;51.000;5.874;2023-08-30T01:39:34;15.75;;;14.95;;
11531;SDS011;5822;51.000;5.874;2023-08-30T01:42:06;15.82;;;15.02;;
11531;SDS011;5822;51.000;5.874;2023-08-30T01:44:32;16.05;;;15.25;;
11531;SDS011;5822;51.000;5.874;2023-08-30T01:46:59;16.10;;;15.30;;
11531;SDS011;5822;51.000;5.874;2023-08-30T01:49:25;16.00;;;15.10;;
11531;SDS011;5822;51.000;5.874;2023-08-30T01:51:56;15.50;;;14.70;;
11531;SDS011;5822;51.000;5.874;2023-08-30T01:54:22;16.02;;;15.23;;
11531;SDS011;5822;51.000;5.874;2023-08-30T01:56:50;15.63;;;14.82;;
11531;SDS011;5822;51.000;5.874;2023-08-30T01:59:16;16.02;;;15.23;;
11531;SDS011;5822;51.000;5.874;2023-08-30T02:01:42;16.50;;;15.70;;
11531;SDS011;5822;51.000;5.874;2023-08-30T02:04:07;15.88;;;15.07;;
11531;SDS011;5822;51.000;5.874;2023-08-30T02:09:01;16.37;;;15.57;;
11531;SDS011;5822;51.000;5.874;2023-08-30T02:11:49;16.17;;;15.38;;
11531;SDS011;5822;51.000;5.874;2023-08-30T02:14:17;16.10;;;15.30;;
11531;SDS011;5822;51.000;5.874;2023-08-30T02:16:45;16.03;;;15.23;;
11531;SDS011;5822;51.000;5.874;2023-08-30T02:19:12;16.02;;;15.23;;
11531;SDS011;5822;51.000;5.874;2023-08-30T02:21:41;16.15;;;15.35;;
11531;SDS011;5822;51.000;5.874;2023-08-30T02:24:07;16.07;;;15.20;;
11531;SDS011;5822;51.000;5.874;2023-08-30T02:26:33;15.98;;;15.18;;
11531;SDS011;5822;51.000;5.874;2023-08-30T02:28:59;16.08;;;15.27;;
11531;SDS011;5822;51.000;5.874;2023-08-30T02:31:26;16.00;;;15.20;;
11531;SDS011;5822;51.000;5.874;2023-08-30T02:33:51;15.60;;;14.80;;
11531;SDS011;5822;51.000;5.874;2023-08-30T02:36:17;16.00;;;15.20;;
11531;SDS011;5822;51.000;5.874;2023-08-30T02:38:42;16.00;;;15.20;;
11531;SDS011;5822;51.000;5.874;2023-08-30T02:41:08;15.43;;;14.73;;
11531;SDS011;5822;51.000;5.874;2023-08-30T02:43:35;15.60;;;14.80;;
11531;SDS011;5822;51.000;5.874;2023-08-30T02:46:01;15.63;;;14.82;;
11531;SDS011;5822;51.000;5.874;2023-08-30T02:48:28;15.45;;;14.65;;
11531;SDS011;5822;51.000;5.874;2023-08-30T02:50:54;15.80;;;15.00;;
11531;SDS011;5822;51.000;5.874;2023-08-30T02:53:20;15.45;;;14.65;;
11531;SDS011;5822;51.000;5.874;2023-08-30T02:55:46;16.00;;;15.20;;
11531;SDS011;5822;51.000;5.874;2023-08-30T02:58:13;15.13;;;14.43;;
11531;SDS011;5822;51.000;5.874;2023-08-30T03:00:38;15.55;;;14.75;;
11531;SDS011;5822;51.000;5.874;2023-08-30T03:03:04;15.35;;;14.55;;
11531;SDS011;5822;51.000;5.874;2023-08-30T03:05:30;15.40;;;14.60;;
11531;SDS011;5822;51.000;5.874;2023-08-30T03:07:55;15.30;;;14.50;;
11531;SDS011;5822;51.000;5.874;2023-08-30T03:10:21;14.63;;;13.93;;
11531;SDS011;5822;51.000;5.874;2023-08-30T03:12:47;15.13;;;14.32;;
11531;SDS011;5822;51.000;5.874;2023-08-30T03:15:13;14.65;;;13.95;;
11531;SDS011;5822;51.000;5.874;2023-08-30T03:17:38;14.80;;;14.10;;
11531;SDS011;5822;51.000;5.874;2023-08-30T03:20:04;15.00;;;14.30;;
11531;SDS011;5822;51.000;5.874;2023-08-30T03:22:31;14.77;;;14.07;;
11531;SDS011;5822;51.000;5.874;2023-08-30T03:24:57;15.10;;;14.40;;
11531;SDS011;5822;51.000;5.874;2023-08-30T03:27:23;14.52;;;13.82;;
11531;SDS011;5822;51.000;5.874;2023-08-30T03:29:48;14.60;;;13.90;;
11531;SDS011;5822;51.000;5.874;2023-08-30T03:32:16;14.63;;;13.93;;
11531;SDS011;5822;51.000;5.874;2023-08-30T03:34:45;14.73;;;14.02;;
11531;SDS011;5822;51.000;5.874;2023-08-30T03:37:12;14.20;;;13.50;;
11531;SDS011;5822;51.000;5.874;2023-08-30T03:39:39;14.88;;;14.18;;
11531;SDS011;5822;51.000;5.874;2023-08-30T03:42:04;14.63;;;13.93;;
11531;SDS011;5822;51.000;5.874;2023-08-30T03:44:30;15.35;;;14.55;;
11531;SDS011;5822;51.000;5.874;2023-08-30T03:46:56;14.80;;;14.10;;
11531;SDS011;5822;51.000;5.874;2023-08-30T03:49:22;14.85;;;14.15;;
11531;SDS011;5822;51.000;5.874;2023-08-30T03:51:48;14.88;;;14.18;;
11531;SDS011;5822;51.000;5.874;2023-08-30T03:54:13;14.70;;;14.00;;
11531;SDS011;5822;51.000;5.874;2023-08-30T03:56:41;15.47;;;14.67;;
11531;SDS011;5822;51.000;5.874;2023-08-30T03:59:08;14.95;;;14.25;;
11531;SDS011;5822;51.000;5.874;2023-08-30T04:01:34;15.40;;;14.60;;
11531;SDS011;5822;51.000;5.874;2023-08-30T04:04:00;15.10;;;14.40;;
11531;SDS011;5822;51.000;5.874;2023-08-30T04:06:25;15.48;;;14.68;;
11531;SDS011;5822;51.000;5.874;2023-08-30T04:08:51;15.00;;;14.30;;
11531;SDS011;5822;51.000;5.874;2023-08-30T04:11:16;14.80;;;14.10;;
11531;SDS011;5822;51.000;5.874;2023-08-30T04:13:42;15.05;;;14.30;;
11531;SDS011;5822;51.000;5.874;2023-08-30T04:16:08;15.00;;;14.30;;
11531;SDS011;5822;51.000;5.874;2023-08-30T04:18:33;15.27;;;14.57;;
11531;SDS011;5822;51.000;5.874;2023-08-30T04:20:59;15.73;;;14.93;;
11531;SDS011;5822;51.000;5.874;2023-08-30T04:23:27;15.43;;;14.73;;
11531;SDS011;5822;51.000;5.874;2023-08-30T04:25:53;15.65;;;14.85;;
11531;SDS011;5822;51.000;5.874;2023-08-30T04:28:21;15.70;;;14.90;;
11531;SDS011;5822;51.000;5.874;2023-08-30T04:30:46;16.03;;;15.23;;
11531;SDS011;5822;51.000;5.874;2023-08-30T04:33:12;15.73;;;14.93;;
11531;SDS011;5822;51.000;5.874;2023-08-30T04:35:38;15.10;;;14.40;;
11531;SDS011;5822;51.000;5.874;2023-08-30T04:38:04;15.33;;;14.60;;
11531;SDS011;5822;51.000;5.874;2023-08-30T04:40:30;15.80;;;15.00;;
11531;SDS011;5822;51.000;5.874;2023-08-30T04:43:00;16.00;;;15.20;;
11531;SDS011;5822;51.000;5.874;2023-08-30T04:45:26;15.55;;;14.75;;
11531;SDS011;5822;51.000;5.874;2023-08-30T04:47:52;15.90;;;15.10;;
11531;SDS011;5822;51.000;5.874;2023-08-30T04:50:18;15.60;;;14.80;;
11531;SDS011;5822;51.000;5.874;2023-08-30T04:52:44;15.38;;;14.65;;
11531;SDS011;5822;51.000;5.874;2023-08-30T04:55:09;15.80;;;15.00;;
11531;SDS011;5822;51.000;5.874;2023-08-30T04:57:35;15.38;;;14.65;;
11531;SDS011;5822;51.000;5.874;2023-08-30T05:00:01;15.90;;;15.10;;
11531;SDS011;5822;51.000;5.874;2023-08-30T05:02:30;15.90;;;15.10;;
11531;SDS011;5822;51.000;5.874;2023-08-30T05:04:56;16.50;;;15.60;;
11531;SDS011;5822;51.000;5.874;2023-08-30T05:07:21;16.45;;;15.55;;
11531;SDS011;5822;51.000;5.874;2023-08-30T05:09:47;16.65;;;15.75;;
11531;SDS011;5822;51.000;5.874;2023-08-30T05:12:13;16.20;;;15.40;;
11531;SDS011;5822;51.000;5.874;2023-08-30T05:14:38;16.05;;;15.25;;
11531;SDS011;5822;51.000;5.874;2023-08-30T05:17:06;16.02;;;15.23;;
11531;SDS011;5822;51.000;5.874;2023-08-30T05:19:32;15.88;;;15.07;;
11531;SDS011;5822;51.000;5.874;2023-08-30T05:21:57;16.30;;;15.50;;
11531;SDS011;5822;51.000;5.874;2023-08-30T05:24:23;16.13;;;15.23;;
11531;SDS011;5822;51.000;5.874;2023-08-30T05:26:51;16.20;;;15.40;;
11531;SDS011;5822;51.000;5.874;2023-08-30T05:29:16;15.90;;;15.10;;
11531;SDS011;5822;51.000;5.874;2023-08-30T05:31:42;16.02;;;15.23;;
11531;SDS011;5822;51.000;5.874;2023-08-30T05:34:09;16.25;;;15.45;;
11531;SDS011;5822;51.000;5.874;2023-08-30T05:36:35;16.67;;;15.77;;
11531;SDS011;5822;51.000;5.874;2023-08-30T05:39:01;16.33;;;15.43;;
11531;SDS011;5822;51.000;5.874;2023-08-30T05:41:28;16.70;;;15.80;;
11531;SDS011;5822;51.000;5.874;2023-08-30T05:43:54;16.27;;;15.40;;
11531;SDS011;5822;51.000;5.874;2023-08-30T05:46:19;16.47;;;15.57;;
11531;SDS011;5822;51.000;5.874;2023-08-30T05:48:45;16.48;;;15.60;;
11531;SDS011;5822;51.000;5.874;2023-08-30T05:51:11;15.80;;;15.00;;
11531;SDS011;5822;51.000;5.874;2023-08-30T05:53:36;16.17;;;15.27;;
11531;SDS011;5822;51.000;5.874;2023-08-30T05:56:03;15.80;;;15.00;;
11531;SDS011;5822;51.000;5.874;2023-08-30T05:58:32;15.40;;;14.60;;
11531;SDS011;5822;51.000;5.874;2023-08-30T06:01:03;15.93;;;15.13;;
11531;SDS011;5822;51.000;5.874;2023-08-30T06:03:31;16.30;;;15.50;;
11531;SDS011;5822;51.000;5.874;2023-08-30T06:05:57;17.10;;;16.20;;
11531;SDS011;5822;51.000;5.874;2023-08-30T06:08:23;16.50;;;15.70;;
11531;SDS011;5822;51.000;5.874;2023-08-30T06:10:52;16.98;;;16.08;;
11531;SDS011;5822;51.000;5.874;2023-08-30T06:13:17;19.40;;;18.50;;
11531;SDS011;5822;51.000;5.874;2023-08-30T06:15:43;19.30;;;18.40;;
11531;SDS011;5822;51.000;5.874;2023-08-30T06:18:10;18.98;;;18.08;;
11531;SDS011;5822;51.000;5.874;2023-08-30T06:20:35;18.85;;;17.95;;
11531;SDS011;5822;51.000;5.874;2023-08-30T06:23:04;19.77;;;18.88;;
11531;SDS011;5822;51.000;5.874;2023-08-30T06:25:30;20.17;;;19.17;;
11531;SDS011;5822;51.000;5.874;2023-08-30T06:27:57;19.43;;;18.53;;
11531;SDS011;5822;51.000;5.874;2023-08-30T06:30:25;19.70;;;18.73;;
11531;SDS011;5822;51.000;5.874;2023-08-30T06:32:51;19.60;;;18.70;;
11531;SDS011;5822;51.000;5.874;2023-08-30T06:35:16;16.70;;;15.90;;
11531;SDS011;5822;51.000;5.874;2023-08-30T06:37:42;16.58;;;15.70;;
11531;SDS011;5822;51.000;5.874;2023-08-30T06:40:08;16.10;;;15.30;;
11531;SDS011;5822;51.000;5.874;2023-08-30T06:42:34;16.40;;;15.60;;
11531;SDS011;5822;51.000;5.874;2023-08-30T06:45:01;16.00;;;15.20;;
11531;SDS011;5822;51.000;5.874;2023-08-30T06:47:27;16.08;;;15.27;;
11531;SDS011;5822;51.000;5.874;2023-08-30T06:49:53;15.77;;;14.98;;
11531;SDS011;5822;51.000;5.874;2023-08-30T06:52:18;16.40;;;15.60;;
11531;SDS011;5822;51.000;5.874;2023-08-30T06:54:44;16.25;;;15.45;;
11531;SDS011;5822;51.000;5.874;2023-08-30T06:57:10;16.58;;;15.77;;
11531;SDS011;5822;51.000;5.874;2023-08-30T06:59:35;16.23;;;15.40;;
11531;SDS011;5822;51.000;5.874;2023-08-30T07:02:01;16.42;;;15.63;;
11531;SDS011;5822;51.000;5.874;2023-08-30T07:04:27;16.63;;;15.73;;
11531;SDS011;5822;51.000;5.874;2023-08-30T07:06:53;16.10;;;15.30;;
11531;SDS011;5822;51.000;5.874;2023-08-30T07:09:19;15.90;;;15.10;;
11531;SDS011;5822;51.000;5.874;2023-08-30T07:11:45;15.90;;;15.10;;
11531;SDS011;5822;51.000;5.874;2023-08-30T07:14:11;16.40;;;15.60;;
11531;SDS011;5822;51.000;5.874;2023-08-30T07:16:38;16.75;;;15.85;;
11531;SDS011;5822;51.000;5.874;2023-08-30T07:19:04;16.60;;;15.70;;
11531;SDS011;5822;51.000;5.874;2023-08-30T07:21:30;16.38;;;15.50;;
11531;SDS011;5822;51.000;5.874;2023-08-30T07:23:56;16.02;;;15.23;;
11531;SDS011;5822;51.000;5.874;2023-08-30T07:26:22;16.08;;;15.27;;
11531;SDS011;5822;51.000;5.874;2023-08-30T07:28:47;16.50;;;15.70;;
11531;SDS011;5822;51.000;5.874;2023-08-30T07:31:13;15.90;;;15.10;;
11531;SDS011;5822;51.000;5.874;2023-08-30T07:33:40;15.83;;;15.03;;
11531;SDS011;5822;51.000;5.874;2023-08-30T07:36:06;16.10;;;15.30;;
11531;SDS011;5822;51.000;5.874;2023-08-30T07:38:33;15.70;;;14.90;;
11531;SDS011;5822;51.000;5.874;2023-08-30T07:41:00;16.48;;;15.57;;
11531;SDS011;5822;51.000;5.874;2023-08-30T07:43:37;16.90;;;16.00;;
11531;SDS011;5822;51.000;5.874;2023-08-30T07:46:03;16.80;;;15.90;;
11531;SDS011;5822;51.000;5.874;2023-08-30T07:48:29;16.30;;;15.50;;
11531;SDS011;5822;51.000;5.874;2023-08-30T07:50:54;16.13;;;15.30;;
11531;SDS011;5822;51.000;5.874;2023-08-30T07:53:20;16.40;;;15.50;;
11531;SDS011;5822;51.000;5.874;2023-08-30T07:55:49;15.80;;;15.00;;
11531;SDS011;5822;51.000;5.874;2023-08-30T07:58:15;15.82;;;15.02;;
11531;SDS011;5822;51.000;5.874;2023-08-30T08:00:42;16.08;;;15.25;;
11531;SDS011;5822;51.000;5.874;2023-08-30T08:03:07;16.20;;;15.40;;
11531;SDS011;5822;51.000;5.874;2023-08-30T08:05:35;17.02;;;16.13;;
11531;SDS011;5822;51.000;5.874;2023-08-30T08:08:01;16.67;;;15.88;;
11531;SDS011;5822;51.000;5.874;2023-08-30T08:10:27;16.77;;;15.88;;
11531;SDS011;5822;51.000;5.874;2023-08-30T08:12:56;16.48;;;15.68;;
11531;SDS011;5822;51.000;5.874;2023-08-30T08:15:22;16.13;;;15.32;;
11531;SDS011;5822;51.000;5.874;2023-08-30T08:17:48;16.00;;;15.20;;
11531;SDS011;5822;51.000;5.874;2023-08-30T08:20:14;16.23;;;15.43;;
11531;SDS011;5822;51.000;5.874;2023-08-30T08:22:40;16.30;;;15.50;;
11531;SDS011;5822;51.000;5.874;2023-08-30T08:25:06;15.88;;;15.07;;
11531;SDS011;5822;51.000;5.874;2023-08-30T08:27:35;15.60;;;14.80;;
11531;SDS011;5822;51.000;5.874;2023-08-30T08:30:01;15.85;;;15.05;;
11531;SDS011;5822;51.000;5.874;2023-08-30T08:32:29;16.05;;;15.25;;
11531;SDS011;5822;51.000;5.874;2023-08-30T08:34:55;16.30;;;15.50;;
11531;SDS011;5822;51.000;5.874;2023-08-30T08:37:21;17.38;;;16.40;;
11531;SDS011;5822;51.000;5.874;2023-08-30T08:39:47;16.37;;;15.57;;
11531;SDS011;5822;51.000;5.874;2023-08-30T08:42:17;15.80;;;15.00;;
11531;SDS011;5822;51.000;5.874;2023-08-30T08:44:46;16.08;;;15.27;;
11531;SDS011;5822;51.000;5.874;2023-08-30T08:47:14;16.00;;;15.20;;
11531;SDS011;5822;51.000;5.874;2023-08-30T08:49:42;15.80;;;15.00;;
11531;SDS011;5822;51.000;5.874;2023-08-30T08:52:08;15.80;;;15.00;;
11531;SDS011;5822;51.000;5.874;2023-08-30T08:54:35;15.95;;;15.15;;
11531;SDS011;5822;51.000;5.874;2023-08-30T08:57:03;15.82;;;15.02;;
11531;SDS011;5822;51.000;5.874;2023-08-30T08:59:30;16.20;;;15.40;;
11531;SDS011;5822;51.000;5.874;2023-08-30T09:01:56;16.10;;;15.30;;
11531;SDS011;5822;51.000;5.874;2023-08-30T09:04:23;15.88;;;15.07;;
11531;SDS011;5822;51.000;5.874;2023-08-30T09:06:50;16.00;;;15.20;;
11531;SDS011;5822;51.000;5.874;2023-08-30T09:09:15;16.08;;;15.27;;
11531;SDS011;5822;51.000;5.874;2023-08-30T09:11:41;15.90;;;15.10;;
11531;SDS011;5822;51.000;5.874;2023-08-30T09:14:24;16.30;;;15.40;;
11531;SDS011;5822;51.000;5.874;2023-08-30T09:16:57;16.27;;;15.37;;
11531;SDS011;5822;51.000;5.874;2023-08-30T09:19:24;18.23;;;17.23;;
11531;SDS011;5822;51.000;5.874;2023-08-30T09:21:53;20.30;;;19.10;;
11531;SDS011;5822;51.000;5.874;2023-08-30T09:24:25;21.00;;;19.80;;
11531;SDS011;5822;51.000;5.874;2023-08-30T09:29:46;24.73;;;23.33;;
11531;SDS011;5822;51.000;5.874;2023-08-30T09:32:12;24.17;;;22.77;;
11531;SDS011;5822;51.000;5.874;2023-08-30T09:34:45;23.73;;;22.40;;
11531;SDS011;5822;51.000;5.874;2023-08-30T09:37:22;24.30;;;22.90;;
11531;SDS011;5822;51.000;5.874;2023-08-30T09:39:51;23.38;;;22.05;;
11531;SDS011;5822;51.000;5.874;2023-08-30T09:42:17;24.20;;;22.80;;
11531;SDS011;5822;51.000;5.874;2023-08-30T09:44:43;23.77;;;22.40;;
11531;SDS011;5822;51.000;5.874;2023-08-30T09:47:09;23.30;;;22.00;;
11531;SDS011;5822;51.000;5.874;2023-08-30T09:49:38;22.37;;;21.07;;
11531;SDS011;5822;51.000;5.874;2023-08-30T09:52:08;20.92;;;19.65;;
11531;SDS011;5822;51.000;5.874;2023-08-30T09:54:35;21.00;;;19.70;;
11531;SDS011;5822;51.000;5.874;2023-08-30T09:57:03;21.45;;;20.15;;
11531;SDS011;5822;51.000;5.874;2023-08-30T09:59:30;20.93;;;19.63;;
11531;SDS011;5822;51.000;5.874;2023-08-30T10:01:56;21.10;;;19.80;;
11531;SDS011;5822;51.000;5.874;2023-08-30T10:04:22;20.65;;;19.45;;
11531;SDS011;5822;51.000;5.874;2023-08-30T10:06:49;20.83;;;19.52;;
11531;SDS011;5822;51.000;5.874;2023-08-30T10:09:16;21.20;;;19.90;;
11531;SDS011;5822;51.000;5.874;2023-08-30T10:11:43;20.60;;;19.40;;
11531;SDS011;5822;51.000;5.874;2023-08-30T10:14:11;19.95;;;18.75;;
11531;SDS011;5822;51.000;5.874;2023-08-30T10:16:42;20.00;;;18.80;;
11531;SDS011;5822;51.000;5.874;2023-08-30T10:21:43;19.92;;;18.77;;
11531;SDS011;5822;51.000;5.874;2023-08-30T10:24:10;19.63;;;18.53;;
11531;SDS011;5822;51.000;5.874;2023-08-30T10:26:38;19.27;;;18.17;;
11531;SDS011;5822;51.000;5.874;2023-08-30T10:29:06;20.10;;;18.90;;
11531;SDS011;5822;51.000;5.874;2023-08-30T10:31:34;19.90;;;18.80;;
11531;SDS011;5822;51.000;5.874;2023-08-30T10:34:11;20.00;;;18.90;;
11531;SDS011;5822;51.000;5.874;2023-08-30T10:36:41;19.25;;;18.15;;
11531;SDS011;5822;51.000;5.874;2023-08-30T10:39:14;19.25;;;18.15;;
11531;SDS011;5822;51.000;5.874;2023-08-30T10:41:56;18.77;;;17.70;;
11531;SDS011;5822;51.000;5.874;2023-08-30T10:44:22;18.73;;;17.73;;
11531;SDS011;5822;51.000;5.874;2023-08-30T10:46:54;18.25;;;17.25;;
11531;SDS011;5822;51.000;5.874;2023-08-30T10:49:20;18.10;;;17.10;;
11531;SDS011;5822;51.000;5.874;2023-08-30T10:51:56;17.63;;;16.67;;
11531;SDS011;5822;51.000;5.874;2023-08-30T10:54:23;17.20;;;16.20;;
11531;SDS011;5822;51.000;5.874;2023-08-30T10:56:56;17.27;;;16.38;;
11531;SDS011;5822;51.000;5.874;2023-08-30T10:59:26;17.25;;;16.35;;
11531;SDS011;5822;51.000;5.874;2023-08-30T11:01:52;17.33;;;16.43;;
11531;SDS011;5822;51.000;5.874;2023-08-30T11:04:19;17.00;;;16.10;;
11531;SDS011;5822;51.000;5.874;2023-08-30T11:06:47;16.73;;;15.82;;
11531;SDS011;5822;51.000;5.874;2023-08-30T11:09:14;17.00;;;16.10;;
11531;SDS011;5822;51.000;5.874;2023-08-30T11:11:45;16.40;;;15.50;;
11531;SDS011;5822;51.000;5.874;2023-08-30T11:14:12;17.00;;;16.10;;
11531;SDS011;5822;51.000;5.874;2023-08-30T11:16:38;16.65;;;15.75;;
11531;SDS011;5822;51.000;5.874;2023-08-30T11:19:05;16.38;;;15.57;;
11531;SDS011;5822;51.000;5.874;2023-08-30T11:21:33;15.90;;;15.10;;
11531;SDS011;5822;51.000;5.874;2023-08-30T11:24:00;15.90;;;15.10;;
11531;SDS011;5822;51.000;5.874;2023-08-30T11:26:26;15.80;;;15.00;;
11531;SDS011;5822;51.000;5.874;2023-08-30T11:28:51;16.85;;;16.02;;
11531;SDS011;5822;51.000;5.874;2023-08-30T11:31:21;18.23;;;17.33;;
11531;SDS011;5822;51.000;5.874;2023-08-30T11:33:54;18.13;;;17.23;;
11531;SDS011;5822;51.000;5.874;2023-08-30T11:36:22;18.13;;;17.23;;
11531;SDS011;5822;51.000;5.874;2023-08-30T11:38:55;18.07;;;17.17;;
11531;SDS011;5822;51.000;5.874;2023-08-30T11:41:21;17.90;;;17.00;;
11531;SDS011;5822;51.000;5.874;2023-08-30T11:43:48;18.50;;;17.55;;
11531;SDS011;5822;51.000;5.874;2023-08-30T11:46:14;17.70;;;16.80;;
11531;SDS011;5822;51.000;5.874;2023-08-30T11:48:40;17.73;;;16.83;;
11531;SDS011;5822;51.000;5.874;2023-08-30T11:51:06;17.85;;;16.95;;
11531;SDS011;5822;51.000;5.874;2023-08-30T11:53:33;17.50;;;16.60;;
11531;SDS011;5822;51.000;5.874;2023-08-30T11:55:59;17.20;;;16.30;;
11531;SDS011;5822;51.000;5.874;2023-08-30T11:58:25;17.83;;;16.92;;
11531;SDS011;5822;51.000;5.874;2023-08-30T12:00:52;18.50;;;17.60;;
11531;SDS011;5822;51.000;5.874;2023-08-30T12:03:22;18.25;;;17.35;;
11531;SDS011;5822;51.000;5.874;2023-08-30T12:05:48;19.55;;;18.55;;
11531;SDS011;5822;51.000;5.874;2023-08-30T12:08:21;18.75;;;17.85;;
11531;SDS011;5822;51.000;5.874;2023-08-30T12:10:49;17.70;;;16.80;;
11531;SDS011;5822;51.000;5.874;2023-08-30T12:16:07;18.02;;;17.13;;
11531;SDS011;5822;51.000;5.874;2023-08-30T12:18:33;16.70;;;15.82;;
11531;SDS011;5822;51.000;5.874;2023-08-30T12:20:59;16.67;;;15.83;;
11531;SDS011;5822;51.000;5.874;2023-08-30T12:23:26;17.08;;;16.17;;
11531;SDS011;5822;51.000;5.874;2023-08-30T12:26:30;17.00;;;16.10;;
11531;SDS011;5822;51.000;5.874;2023-08-30T12:28:45;17.33;;;16.42;;
11531;SDS011;5822;51.000;5.874;2023-08-30T12:31:11;17.10;;;16.20;;
11531;SDS011;5822;51.000;5.874;2023-08-30T12:33:37;17.13;;;16.23;;
11531;SDS011;5822;51.000;5.874;2023-08-30T12:36:05;17.33;;;16.42;;
11531;SDS011;5822;51.000;5.874;2023-08-30T12:38:30;17.20;;;16.30;;
11531;SDS011;5822;51.000;5.874;2023-08-30T12:40:56;17.02;;;16.13;;
11531;SDS011;5822;51.000;5.874;2023-08-30T12:43:22;16.58;;;15.77;;
11531;SDS011;5822;51.000;5.874;2023-08-30T12:45:49;16.50;;;15.70;;
11531;SDS011;5822;51.000;5.874;2023-08-30T12:48:15;17.00;;;16.10;;
11531;SDS011;5822;51.000;5.874;2023-08-30T12:50:46;16.75;;;15.95;;
11531;SDS011;5822;51.000;5.874;2023-08-30T12:53:22;16.90;;;16.00;;
11531;SDS011;5822;51.000;5.874;2023-08-30T12:55:48;17.20;;;16.30;;
11531;SDS011;5822;51.000;5.874;2023-08-30T12:58:13;17.40;;;16.50;;
11531;SDS011;5822;51.000;5.874;2023-08-30T13:00:39;18.17;;;17.27;;
11531;SDS011;5822;51.000;5.874;2023-08-30T13:03:05;17.77;;;16.88;;
11531;SDS011;5822;51.000;5.874;2023-08-30T13:05:31;16.90;;;16.10;;
11531;SDS011;5822;51.000;5.874;2023-08-30T13:07:57;16.67;;;15.88;;
11531;SDS011;5822;51.000;5.874;2023-08-30T13:10:24;16.50;;;15.70;;
11531;SDS011;5822;51.000;5.874;2023-08-30T13:12:49;17.35;;;16.45;;
11531;SDS011;5822;51.000;5.874;2023-08-30T13:15:15;17.08;;;16.27;;
11531;SDS011;5822;51.000;5.874;2023-08-30T13:17:41;16.97;;;16.17;;
11531;SDS011;5822;51.000;5.874;2023-08-30T13:20:06;17.08;;;16.27;;
11531;SDS011;5822;51.000;5.874;2023-08-30T13:22:32;16.88;;;16.08;;
11531;SDS011;5822;51.000;5.874;2023-08-30T13:24:58;16.80;;;16.00;;
11531;SDS011;5822;51.000;5.874;2023-08-30T13:27:24;16.67;;;15.87;;
11531;SDS011;5822;51.000;5.874;2023-08-30T13:29:49;15.07;;;14.37;;
11531;SDS011;5822;51.000;5.874;2023-08-30T13:32:15;15.10;;;14.30;;
11531;SDS011;5822;51.000;5.874;2023-08-30T13:34:41;15.48;;;14.68;;
11531;SDS011;5822;51.000;5.874;2023-08-30T13:37:11;15.32;;;14.52;;
11531;SDS011;5822;51.000;5.874;2023-08-30T13:39:37;15.30;;;14.50;;
11531;SDS011;5822;51.000;5.874;2023-08-30T13:42:03;15.20;;;14.40;;
11531;SDS011;5822;51.000;5.874;2023-08-30T13:44:29;15.23;;;14.43;;
11531;SDS011;5822;51.000;5.874;2023-08-30T13:46:54;15.40;;;14.60;;
11531;SDS011;5822;51.000;5.874;2023-08-30T13:49:20;15.45;;;14.65;;
11531;SDS011;5822;51.000;5.874;2023-08-30T13:51:46;15.50;;;14.70;;
11531;SDS011;5822;51.000;5.874;2023-08-30T13:54:11;15.50;;;14.70;;
11531;SDS011;5822;51.000;5.874;2023-08-30T13:56:37;15.20;;;14.40;;
11531;SDS011;5822;51.000;5.874;2023-08-30T13:59:03;15.67;;;14.87;;
11531;SDS011;5822;51.000;5.874;2023-08-30T14:01:31;15.35;;;14.55;;
11531;SDS011;5822;51.000;5.874;2023-08-30T14:03:57;15.48;;;14.68;;
11531;SDS011;5822;51.000;5.874;2023-08-30T14:06:23;16.73;;;15.93;;
11531;SDS011;5822;51.000;5.874;2023-08-30T14:08:48;17.05;;;16.25;;
11531;SDS011;5822;51.000;5.874;2023-08-30T14:11:14;17.17;;;16.38;;
11531;SDS011;5822;51.000;5.874;2023-08-30T14:13:40;17.00;;;16.20;;
11531;SDS011;5822;51.000;5.874;2023-08-30T14:16:05;16.10;;;15.30;;
11531;SDS011;5822;51.000;5.874;2023-08-30T14:18:32;16.02;;;15.23;;
11531;SDS011;5822;51.000;5.874;2023-08-30T14:20:58;15.77;;;14.98;;
11531;SDS011;5822;51.000;5.874;2023-08-30T14:23:28;16.87;;;15.97;;
11531;SDS011;5822;51.000;5.874;2023-08-30T14:25:55;16.85;;;16.05;;
11531;SDS011;5822;51.000;5.874;2023-08-30T14:28:24;16.77;;;15.97;;
11531;SDS011;5822;51.000;5.874;2023-08-30T14:30:51;15.70;;;14.90;;
11531;SDS011;5822;51.000;5.874;2023-08-30T14:33:17;16.13;;;15.32;;
11531;SDS011;5822;51.000;5.874;2023-08-30T14:35:43;16.20;;;15.40;;
11531;SDS011;5822;51.000;5.874;2023-08-30T14:38:09;16.42;;;15.52;;
11531;SDS011;5822;51.000;5.874;2023-08-30T14:40:34;16.67;;;15.77;;
11531;SDS011;5822;51.000;5.874;2023-08-30T14:43:01;16.90;;;16.00;;
11531;SDS011;5822;51.000;5.874;2023-08-30T14:45:28;17.30;;;16.40;;
11531;SDS011;5822;51.000;5.874;2023-08-30T14:47:54;16.67;;;15.77;;
11531;SDS011;5822;51.000;5.874;2023-08-30T14:50:20;16.65;;;15.75;;